Time;durP1;ratioP1;P1;durP2;ratioP2;P2;SDS_P1;SDS_P2;PMS_P1;PMS_P2;Temp;Humidity;BMP_temperature;BMP_pressure;BME280_temperature;BME280_humidity;BME280_pressure;Samples;Min_cycle;Max_cycle;Signal;HPM_P1;HPM_P2
2021/12/09 00:01:20;;;;;;;;;;;;;;;;;;5091405;28;19912;-66
2021/12/09 00:03:46;;;;;;;;;;;;;;;;;;5085493;28;19919;-68
2021/12/09 00:06:11;;;;;;;;;;;;;;;;;;5083637;28;20070;-67
2021/12/09 00:08:37;;;;;;;;;;;;;;;;;;5082790;28;19913;-67
2021/12/09 00:11:03;;;;;;;;;;;;;;;;;;5083245;28;19913;-67
2021/12/09 00:13:28;;;;;;;;;;;;;;;;;;5082592;28;19922;-64
2021/12/09 00:15:53;;;;;;;;;;;;;;;;;;5087059;28;20024;-64
2021/12/09 00:18:18;;;;;;;;;;;;;;;;;;5082744;28;19916;-66
2021/12/09 00:20:43;;;;;;;;;;;;;;;;;;5084476;28;19912;-66
2021/12/09 00:23:08;;;;;;;;;;;;;;;;;;5085022;28;19912;-67
2021/12/09 00:25:33;;;;;;;;;;;;;;;;;;5085747;28;20010;-66
2021/12/09 00:27:58;;;;;;;;;;;;;;;;;;5089187;28;19928;-66
2021/12/09 00:30:23;;;;;;;;;;;;;;;;;;5090785;28;20312;-65
2021/12/09 00:32:49;;;;;;;;;;;;;;;;;;5084054;28;19955;-65
2021/12/09 00:35:15;;;;;;;;;;;;;;;;;;5084545;28;19985;-65
2021/12/09 00:37:52;;;;;;;;;;;;;;;;;;5085895;28;20372;-65
2021/12/09 00:40:17;;;;;;;;;;;;;;;;;;5081795;28;20253;-65
2021/12/09 00:42:42;;;;;;;;;;;;;;;;;;5086977;28;20430;-66
2021/12/09 00:45:07;;;;;;;;;;;;;;;;;;5084362;28;20023;-66
2021/12/09 00:47:32;;;;;;;;;;;;;;;;;;5087085;28;19919;-65
2021/12/09 00:49:57;;;;;;;;;;;;;;;;;;5085273;28;19965;-65
2021/12/09 00:52:26;;;;;;;;;;;;;;;;;;5085147;28;19950;-65
2021/12/09 00:54:51;;;;;;;;;;;;;;;;;;5085259;28;19958;-66
2021/12/09 00:57:17;;;;;;;;;;;;;;;;;;5081823;28;19916;-66
2021/12/09 00:59:42;;;;;;;;;;;;;;;;;;5079537;28;19969;-66
2021/12/09 01:02:09;;;;;;;;;;;;;;;;;;5082181;28;19912;-65
2021/12/09 01:04:34;;;;;;;;;;;;;;;;;;5083216;28;19916;-65
2021/12/09 01:07:00;;;;;;;;;;;;;;;;;;5084640;28;19988;-65
2021/12/09 01:09:25;;;;;;;;;;;;;;;;;;5088040;28;19919;-65
2021/12/09 01:11:50;;;;;;;;;;;;;;;;;;5083294;28;20284;-66
2021/12/09 01:14:15;;;;;;;;;;;;;;;;;;5088968;28;19920;-66
2021/12/09 01:16:40;;;;;;;;;;;;;;;;;;5088064;28;19920;-66
2021/12/09 01:19:05;;;;;;;;;;;;;;;;;;5081969;28;19916;-66
2021/12/09 01:21:30;;;;;;;;;;;;;;;;;;5085660;28;19912;-66
2021/12/09 01:23:55;;;;;;;;;;;;;;;;;;5085340;28;19912;-66
2021/12/09 01:26:21;;;;;;;;;;;;;;;;;;5085811;28;19912;-66
2021/12/09 01:28:54;;;;;;;;;;;;;;;;;;5083949;28;19942;-66
2021/12/09 01:31:24;;;;;;;;;;;;;;;;;;5082680;28;19924;-66
2021/12/09 01:33:51;;;;;;;;;;;;;;;;;;5085346;28;20015;-66
2021/12/09 01:36:16;;;;;;;;;;;;;;;;;;5081194;28;19916;-65
2021/12/09 01:38:41;;;;;;;;;;;;;;;;;;5078681;28;19916;-65
2021/12/09 01:41:07;;;;;;;;;;;;;;;;;;5083136;28;19919;-65
2021/12/09 01:43:32;;;;;;;;;;;;;;;;;;5083976;28;19912;-65
2021/12/09 01:45:57;;;;;;;;;;;;;;;;;;5084038;28;19959;-65
2021/12/09 01:48:22;;;;;;;;;;;;;;;;;;5070081;28;19939;-65
2021/12/09 01:50:47;;;;;;;;;;;;;;;;;;5085276;28;19912;-65
2021/12/09 01:53:12;;;;;;;;;;;;;;;;;;5083278;28;20015;-66
2021/12/09 01:55:37;;;;;;;;;;;;;;;;;;5084727;28;20386;-65
2021/12/09 01:58:02;;;;;;;;;;;;;;;;;;5082130;28;19931;-65
2021/12/09 02:00:28;;;;;;;;;;;;;;;;;;5081500;28;20273;-65
2021/12/09 02:02:53;;;;;;;;;;;;;;;;;;5087038;28;19912;-65
2021/12/09 02:05:18;;;;;;;;;;;;;;;;;;5089170;28;20402;-66
2021/12/09 02:07:43;;;;;;;;;;;;;;;;;;5090791;28;20296;-67
2021/12/09 02:10:08;;;;;;;;;;;;;;;;;;5087275;28;19920;-67
2021/12/09 02:12:33;;;;;;;;;;;;;;;;;;5087323;28;20470;-67
2021/12/09 02:15:00;;;;;;;;;;;;;;;;;;5087331;28;19919;-67
2021/12/09 02:17:25;;;;;;;;;;;;;;;;;;5088525;28;20279;-67
2021/12/09 02:19:51;;;;;;;;;;;;;;;;;;5091717;28;20372;-66
2021/12/09 02:22:17;;;;;;;;;;;;;;;;;;5088290;28;19912;-66
2021/12/09 02:24:42;;;;;;;;;;;;;;;;;;5085228;28;19954;-66
2021/12/09 02:27:07;;;;;;;;;;;;;;;;;;5089006;28;19947;-66
2021/12/09 02:29:32;;;;;;;;;;;;;;;;;;5087264;28;20333;-66
2021/12/09 02:31:58;;;;;;;;;;;;;;;;;;5093488;28;19916;-67
2021/12/09 02:34:23;;;;;;;;;;;;;;;;;;5087062;28;19917;-65
2021/12/09 02:36:50;;;;;;;;;;;;;;;;;;5084836;28;19995;-65
2021/12/09 02:39:15;;;;;;;;;;;;;;;;;;5081261;28;19920;-66
2021/12/09 02:41:40;;;;;;;;;;;;;;;;;;5081019;28;19923;-65
2021/12/09 02:44:05;;;;;;;;;;;;;;;;;;5081537;28;19969;-67
2021/12/09 02:46:35;;;;;;;;;;;;;;;;;;5083180;28;19912;-67
2021/12/09 02:49:00;;;;;;;;;;;;;;;;;;5085713;28;19913;-65
2021/12/09 02:51:25;;;;;;;;;;;;;;;;;;5090575;28;19928;-67
2021/12/09 02:53:50;;;;;;;;;;;;;;;;;;5087250;28;20016;-64
2021/12/09 02:56:15;;;;;;;;;;;;;;;;;;5086054;28;19920;-67
2021/12/09 02:58:40;;;;;;;;;;;;;;;;;;5091676;28;19920;-65
2021/12/09 03:01:08;;;;;;;;;;;;;;;;;;5089145;28;19999;-66
2021/12/09 03:03:33;;;;;;;;;;;;;;;;;;5088580;28;19928;-66
2021/12/09 03:05:58;;;;;;;;;;;;;;;;;;5090235;28;19923;-66
2021/12/09 03:08:33;;;;;;;;;;;;;;;;;;5091724;28;19922;-66
2021/12/09 03:10:58;;;;;;;;;;;;;;;;;;5084739;28;21228;-66
2021/12/09 03:13:24;;;;;;;;;;;;;;;;;;5086835;28;20460;-66
2021/12/09 03:15:49;;;;;;;;;;;;;;;;;;5083682;28;19913;-66
2021/12/09 03:18:14;;;;;;;;;;;;;;;;;;5087803;28;20322;-66
2021/12/09 03:20:39;;;;;;;;;;;;;;;;;;5085456;28;19962;-66
2021/12/09 03:23:04;;;;;;;;;;;;;;;;;;5082884;28;20410;-66
2021/12/09 03:25:29;;;;;;;;;;;;;;;;;;5087944;28;19916;-66
2021/12/09 03:27:54;;;;;;;;;;;;;;;;;;5090150;28;19917;-66
2021/12/09 03:30:19;;;;;;;;;;;;;;;;;;5082008;28;19916;-66
2021/12/09 03:32:44;;;;;;;;;;;;;;;;;;5077127;28;20007;-66
2021/12/09 03:35:09;;;;;;;;;;;;;;;;;;5066120;28;19963;-66
2021/12/09 03:37:34;;;;;;;;;;;;;;;;;;5071050;28;19966;-66
2021/12/09 03:39:59;;;;;;;;;;;;;;;;;;5064180;28;19916;-66
2021/12/09 03:42:24;;;;;;;;;;;;;;;;;;5069331;28;20415;-66
2021/12/09 03:44:50;;;;;;;;;;;;;;;;;;5065206;28;19920;-66
2021/12/09 03:47:15;;;;;;;;;;;;;;;;;;5063463;28;19921;-66
2021/12/09 03:49:42;;;;;;;;;;;;;;;;;;5066316;28;20281;-66
2021/12/09 03:52:07;;;;;;;;;;;;;;;;;;5064457;28;19920;-66
2021/12/09 03:54:32;;;;;;;;;;;;;;;;;;5063636;28;19916;-66
2021/12/09 03:56:57;;;;;;;;;;;;;;;;;;5066263;28;20433;-66
2021/12/09 03:59:22;;;;;;;;;;;;;;;;;;5061069;28;19923;-66
2021/12/09 04:01:47;;;;;;;;;;;;;;;;;;5068669;28;20261;-66
2021/12/09 04:04:12;;;;;;;;;;;;;;;;;;5062530;28;19912;-66
2021/12/09 04:06:37;;;;;;;;;;;;;;;;;;5064433;28;19920;-66
2021/12/09 04:09:02;;;;;;;;;;;;;;;;;;5073115;28;20354;-66
2021/12/09 04:11:27;;;;;;;;;;;;;;;;;;5062626;28;19928;-66
2021/12/09 04:13:54;;;;;;;;;;;;;;;;;;5053651;28;20034;-66
2021/12/09 04:16:19;;;;;;;;;;;;;;;;;;5061311;28;20430;-66
2021/12/09 04:18:44;;;;;;;;;;;;;;;;;;5063936;28;19925;-66
2021/12/09 04:21:09;;;;;;;;;;;;;;;;;;5067200;28;19916;-66
2021/12/09 04:23:35;;;;;;;;;;;;;;;;;;5063091;28;19921;-66
2021/12/09 04:26:00;;;;;;;;;;;;;;;;;;5066215;28;19917;-66
2021/12/09 04:28:25;;;;;;;;;;;;;;;;;;5062255;28;20369;-66
2021/12/09 04:30:50;;;;;;;;;;;;;;;;;;5059339;28;19916;-66
2021/12/09 04:33:15;;;;;;;;;;;;;;;;;;5063821;28;19928;-65
2021/12/09 04:35:40;;;;;;;;;;;;;;;;;;5064913;28;19913;-65
2021/12/09 04:38:05;;;;;;;;;;;;;;;;;;5062112;28;19932;-66
2021/12/09 04:40:30;;;;;;;;;;;;;;;;;;5062278;28;19928;-65
2021/12/09 04:42:55;;;;;;;;;;;;;;;;;;5063451;28;20376;-67
2021/12/09 04:45:20;;;;;;;;;;;;;;;;;;5055713;28;19942;-67
2021/12/09 04:47:45;;;;;;;;;;;;;;;;;;5066474;28;19913;-66
2021/12/09 04:50:10;;;;;;;;;;;;;;;;;;5064931;28;19921;-66
2021/12/09 04:52:35;;;;;;;;;;;;;;;;;;5068108;28;20284;-66
2021/12/09 04:55:01;;;;;;;;;;;;;;;;;;5065040;28;20015;-65
2021/12/09 04:57:26;;;;;;;;;;;;;;;;;;5065163;28;19913;-65
2021/12/09 04:59:51;;;;;;;;;;;;;;;;;;5061097;28;19962;-66
2021/12/09 05:02:35;;;;;;;;;;;;;;;;;;5059010;28;20377;-66
2021/12/09 05:05:00;;;;;;;;;;;;;;;;;;5066066;28;19917;-66
2021/12/09 05:07:25;;;;;;;;;;;;;;;;;;5065976;28;20003;-66
2021/12/09 05:09:51;;;;;;;;;;;;;;;;;;5062810;28;19913;-67
2021/12/09 05:12:17;;;;;;;;;;;;;;;;;;5069126;28;20342;-66
2021/12/09 05:14:44;;;;;;;;;;;;;;;;;;5062706;28;20008;-65
2021/12/09 05:17:09;;;;;;;;;;;;;;;;;;5064221;28;19963;-67
2021/12/09 05:19:34;;;;;;;;;;;;;;;;;;5070667;28;19960;-66
2021/12/09 05:21:59;;;;;;;;;;;;;;;;;;5062842;28;19958;-66
2021/12/09 05:24:24;;;;;;;;;;;;;;;;;;5059346;28;19928;-65
2021/12/09 05:26:53;;;;;;;;;;;;;;;;;;5064998;28;19962;-65
2021/12/09 05:29:18;;;;;;;;;;;;;;;;;;5063355;28;19913;-65
2021/12/09 05:34:27;;;;;;;;;;;;;;;;;;5086066;28;19981;-66
2021/12/09 05:36:52;;;;;;;;;;;;;;;;;;5080809;28;20351;-66
2021/12/09 05:39:17;;;;;;;;;;;;;;;;;;5077740;28;20030;-65
2021/12/09 05:41:42;;;;;;;;;;;;;;;;;;5082571;28;19912;-62
2021/12/09 05:44:07;;;;;;;;;;;;;;;;;;5083045;28;20000;-62
2021/12/09 05:46:32;;;;;;;;;;;;;;;;;;5082017;28;19916;-62
2021/12/09 05:48:58;;;;;;;;;;;;;;;;;;5084952;28;20367;-62
2021/12/09 05:51:23;;;;;;;;;;;;;;;;;;5082876;28;20015;-62
2021/12/09 05:53:48;;;;;;;;;;;;;;;;;;5083971;28;20351;-62
2021/12/09 05:56:13;;;;;;;;;;;;;;;;;;5080542;28;19920;-62
2021/12/09 05:58:38;;;;;;;;;;;;;;;;;;5089503;28;20330;-62
2021/12/09 06:01:04;;;;;;;;;;;;;;;;;;5082643;28;19920;-62
2021/12/09 06:03:29;;;;;;;;;;;;;;;;;;5083293;28;20023;-61
2021/12/09 06:05:54;;;;;;;;;;;;;;;;;;5085859;28;20276;-62
2021/12/09 06:08:19;;;;;;;;;;;;;;;;;;5081231;28;19912;-62
2021/12/09 06:10:44;;;;;;;;;;;;;;;;;;5086788;28;19959;-62
2021/12/09 06:13:09;;;;;;;;;;;;;;;;;;5088316;28;19966;-62
2021/12/09 06:15:34;;;;;;;;;;;;;;;;;;5080585;28;19969;-60
2021/12/09 06:17:59;;;;;;;;;;;;;;;;;;5084222;28;20373;-62
2021/12/09 06:20:24;;;;;;;;;;;;;;;;;;5085218;28;19923;-62
2021/12/09 06:22:49;;;;;;;;;;;;;;;;;;5083806;28;20440;-62
2021/12/09 06:25:18;;;;;;;;;;;;;;;;;;5087388;28;19947;-63
2021/12/09 06:27:43;;;;;;;;;;;;;;;;;;5081725;28;19992;-62
2021/12/09 06:30:08;;;;;;;;;;;;;;;;;;5085386;28;20008;-62
2021/12/09 06:32:33;;;;;;;;;;;;;;;;;;5079359;28;19971;-62
2021/12/09 06:34:58;;;;;;;;;;;;;;;;;;5064209;28;19913;-62
2021/12/09 06:37:23;;;;;;;;;;;;;;;;;;5064871;28;19970;-62
2021/12/09 06:39:48;;;;;;;;;;;;;;;;;;5055207;28;19969;-62
2021/12/09 06:42:16;;;;;;;;;;;;;;;;;;5054745;28;19962;-62
2021/12/09 06:44:41;;;;;;;;;;;;;;;;;;5059263;28;19966;-62
2021/12/09 06:47:06;;;;;;;;;;;;;;;;;;5048017;28;19913;-61
2021/12/09 06:49:31;;;;;;;;;;;;;;;;;;5056536;28;19920;-61
2021/12/09 06:51:56;;;;;;;;;;;;;;;;;;5069470;28;19950;-62
2021/12/09 06:54:21;;;;;;;;;;;;;;;;;;5060760;28;19958;-63
2021/12/09 06:56:46;;;;;;;;;;;;;;;;;;5071170;28;19913;-61
2021/12/09 06:59:11;;;;;;;;;;;;;;;;;;5066992;28;19966;-62
2021/12/09 07:01:37;;;;;;;;;;;;;;;;;;5064999;28;20011;-62
2021/12/09 07:04:03;;;;;;;;;;;;;;;;;;5065231;28;20021;-62
2021/12/09 07:06:28;;;;;;;;;;;;;;;;;;5066765;28;19951;-62
2021/12/09 07:08:54;;;;;;;;;;;;;;;;;;5069256;28;19923;-61
2021/12/09 07:11:19;;;;;;;;;;;;;;;;;;5071279;28;19999;-61
2021/12/09 07:13:44;;;;;;;;;;;;;;;;;;5067959;28;19918;-61
2021/12/09 07:16:09;;;;;;;;;;;;;;;;;;5071182;28;19923;-63
2021/12/09 07:18:34;;;;;;;;;;;;;;;;;;5067185;28;20327;-62
2021/12/09 07:20:59;;;;;;;;;;;;;;;;;;5068943;28;20022;-62
2021/12/09 07:23:24;;;;;;;;;;;;;;;;;;5065980;28;20018;-62
2021/12/09 07:25:49;;;;;;;;;;;;;;;;;;5067223;28;19965;-60
2021/12/09 07:28:14;;;;;;;;;;;;;;;;;;5080997;28;19942;-62
2021/12/09 07:30:39;;;;;;;;;;;;;;;;;;5067492;28;20402;-62
2021/12/09 07:33:04;;;;;;;;;;;;;;;;;;5075525;28;19928;-62
2021/12/09 07:35:30;;;;;;;;;;;;;;;;;;5080662;28;20364;-61
2021/12/09 07:37:55;;;;;;;;;;;;;;;;;;5086276;28;19951;-62
2021/12/09 07:40:21;;;;;;;;;;;;;;;;;;5088380;28;19920;-61
2021/12/09 07:42:46;;;;;;;;;;;;;;;;;;4976476;28;19916;-62
2021/12/09 07:45:11;;;;;;;;;;;;;;;;;;5074794;28;19927;-63
2021/12/09 07:47:36;;;;;;;;;;;;;;;;;;5073769;28;21225;-62
2021/12/09 07:50:01;;;;;;;;;;;;;;;;;;5061478;28;19920;-62
2021/12/09 07:52:26;;;;;;;;;;;;;;;;;;5074914;28;19912;-62
2021/12/09 07:54:51;;;;;;;;;;;;;;;;;;5082369;28;20380;-62
2021/12/09 07:57:16;;;;;;;;;;;;;;;;;;5082380;28;19947;-62
2021/12/09 07:59:41;;;;;;;;;;;;;;;;;;5074034;28;19930;-62
2021/12/09 08:02:07;;;;;;;;;;;;;;;;;;5078221;28;19916;-61
2021/12/09 08:04:33;;;;;;;;;;;;;;;;;;5079781;28;19924;-61
2021/12/09 08:06:58;;;;;;;;;;;;;;;;;;5077549;28;19974;-61
2021/12/09 08:09:23;;;;;;;;;;;;;;;;;;5078505;28;19999;-61
2021/12/09 08:11:48;;;;;;;;;;;;;;;;;;5081516;28;19916;-61
2021/12/09 08:14:16;;;;;;;;;;;;;;;;;;5073143;28;19921;-61
2021/12/09 08:16:41;;;;;;;;;;;;;;;;;;5081798;28;19916;-61
2021/12/09 08:19:06;;;;;;;;;;;;;;;;;;5075902;28;19924;-61
2021/12/09 08:21:33;;;;;;;;;;;;;;;;;;5078612;28;19919;-61
2021/12/09 08:23:58;;;;;;;;;;;;;;;;;;5080455;28;19927;-61
2021/12/09 08:26:23;;;;;;;;;;;;;;;;;;5082977;28;19916;-61
2021/12/09 08:28:48;;;;;;;;;;;;;;;;;;5081918;28;19920;-62
2021/12/09 08:31:13;;;;;;;;;;;;;;;;;;5077162;28;19958;-62
2021/12/09 08:33:39;;;;;;;;;;;;;;;;;;5075763;28;19928;-61
2021/12/09 08:36:04;;;;;;;;;;;;;;;;;;5079787;28;19912;-62
2021/12/09 08:38:29;;;;;;;;;;;;;;;;;;5083540;28;20410;-62
2021/12/09 08:40:54;;;;;;;;;;;;;;;;;;5078968;28;19912;-62
2021/12/09 08:43:19;;;;;;;;;;;;;;;;;;5079378;28;19927;-62
2021/12/09 08:45:44;;;;;;;;;;;;;;;;;;5086134;28;20050;-62
2021/12/09 08:48:09;;;;;;;;;;;;;;;;;;5077405;28;19920;-62
2021/12/09 08:50:35;;;;;;;;;;;;;;;;;;5080528;28;19923;-62
2021/12/09 08:53:00;;;;;;;;;;;;;;;;;;5084634;28;19919;-62
2021/12/09 08:55:25;;;;;;;;;;;;;;;;;;5082132;28;19920;-62
2021/12/09 08:57:50;;;;;;;;;;;;;;;;;;5079720;28;19916;-62
2021/12/09 09:00:15;;;;;;;;;;;;;;;;;;5080947;28;20384;-63
2021/12/09 09:02:40;;;;;;;;;;;;;;;;;;5082564;28;20011;-62
2021/12/09 09:05:08;;;;;;;;;;;;;;;;;;5080136;28;19912;-62
2021/12/09 09:07:33;;;;;;;;;;;;;;;;;;5080715;28;20368;-62
2021/12/09 09:09:58;;;;;;;;;;;;;;;;;;5083607;28;21838;-62
2021/12/09 09:12:23;;;;;;;;;;;;;;;;;;5079738;28;19917;-62
2021/12/09 09:14:48;;;;;;;;;;;;;;;;;;5081811;28;19920;-63
2021/12/09 09:17:13;;;;;;;;;;;;;;;;;;5079696;28;19912;-62
2021/12/09 09:19:38;;;;;;;;;;;;;;;;;;5079957;28;20007;-62
2021/12/09 09:22:03;;;;;;;;;;;;;;;;;;5083638;28;19916;-62
2021/12/09 09:24:28;;;;;;;;;;;;;;;;;;5084670;28;19916;-62
2021/12/09 09:26:53;;;;;;;;;;;;;;;;;;5080786;28;19920;-62
2021/12/09 09:29:19;;;;;;;;;;;;;;;;;;5080529;28;19912;-61
2021/12/09 09:31:44;;;;;;;;;;;;;;;;;;5078397;28;20363;-62
2021/12/09 09:34:11;;;;;;;;;;;;;;;;;;5078301;28;19920;-63
2021/12/09 09:36:39;;;;;;;;;;;;;;;;;;5076774;28;19919;-62
2021/12/09 09:39:17;;;;;;;;;;;;;;;;;;5078601;28;20047;-63
2021/12/09 09:41:42;;;;;;;;;;;;;;;;;;5082041;28;19912;-62
2021/12/09 09:44:16;;;;;;;;;;;;;;;;;;5081849;28;19931;-63
2021/12/09 09:46:41;;;;;;;;;;;;;;;;;;5075839;28;19913;-63
2021/12/09 09:49:06;;;;;;;;;;;;;;;;;;5080033;28;19920;-62
2021/12/09 09:51:31;;;;;;;;;;;;;;;;;;5080519;28;20437;-61
2021/12/09 09:53:56;;;;;;;;;;;;;;;;;;5080490;28;19926;-61
2021/12/09 09:56:23;;;;;;;;;;;;;;;;;;5080363;28;19923;-62
2021/12/09 09:58:48;;;;;;;;;;;;;;;;;;5078883;28;20479;-60
2021/12/09 10:01:13;;;;;;;;;;;;;;;;;;5079799;28;20384;-61
2021/12/09 10:03:41;;;;;;;;;;;;;;;;;;5082377;28;19920;-61
2021/12/09 10:06:06;;;;;;;;;;;;;;;;;;5074622;28;20384;-62
2021/12/09 10:08:31;;;;;;;;;;;;;;;;;;5083842;28;20007;-62
2021/12/09 10:10:56;;;;;;;;;;;;;;;;;;5078872;28;19928;-62
2021/12/09 10:13:23;;;;;;;;;;;;;;;;;;5075736;28;19920;-62
2021/12/09 10:15:48;;;;;;;;;;;;;;;;;;5082639;28;20293;-61
2021/12/09 10:18:13;;;;;;;;;;;;;;;;;;5078195;28;20360;-61
2021/12/09 10:20:38;;;;;;;;;;;;;;;;;;5078231;28;19912;-61
2021/12/09 10:23:03;;;;;;;;;;;;;;;;;;5087069;28;19916;-61
2021/12/09 10:25:28;;;;;;;;;;;;;;;;;;5080655;28;19969;-62
2021/12/09 10:27:53;;;;;;;;;;;;;;;;;;5080718;28;19962;-62
2021/12/09 10:30:20;;;;;;;;;;;;;;;;;;5081466;28;19912;-61
2021/12/09 10:32:45;;;;;;;;;;;;;;;;;;5083471;28;19924;-62
2021/12/09 10:35:10;;;;;;;;;;;;;;;;;;5086825;28;19920;-62
2021/12/09 10:37:36;;;;;;;;;;;;;;;;;;5079578;28;20376;-61
2021/12/09 10:40:01;;;;;;;;;;;;;;;;;;5080038;28;20361;-63
2021/12/09 10:42:26;;;;;;;;;;;;;;;;;;5082060;28;19927;-63
2021/12/09 10:44:51;;;;;;;;;;;;;;;;;;5081642;28;20406;-63
2021/12/09 10:47:22;;;;;;;;;;;;;;;;;;5084206;28;19920;-62
2021/12/09 10:49:51;;;;;;;;;;;;;;;;;;5083222;28;19912;-62
2021/12/09 10:52:17;;;;;;;;;;;;;;;;;;5082080;28;20051;-62
2021/12/09 10:54:42;;;;;;;;;;;;;;;;;;5089205;28;20002;-61
2021/12/09 10:57:07;;;;;;;;;;;;;;;;;;5080273;28;19951;-62
2021/12/09 10:59:32;;;;;;;;;;;;;;;;;;5084631;28;19924;-62
2021/12/09 11:01:57;;;;;;;;;;;;;;;;;;5082525;28;19919;-62
2021/12/09 11:04:23;;;;;;;;;;;;;;;;;;5079120;28;19947;-63
2021/12/09 11:06:48;;;;;;;;;;;;;;;;;;5085286;28;20514;-63
2021/12/09 11:09:13;;;;;;;;;;;;;;;;;;5079394;28;20609;-63
2021/12/09 11:11:39;;;;;;;;;;;;;;;;;;5080766;28;19978;-63
2021/12/09 11:14:05;;;;;;;;;;;;;;;;;;5084323;28;19938;-63
2021/12/09 11:16:30;;;;;;;;;;;;;;;;;;5081794;28;19920;-63
2021/12/09 11:18:57;;;;;;;;;;;;;;;;;;5080774;28;19919;-62
2021/12/09 11:21:23;;;;;;;;;;;;;;;;;;5084051;28;20388;-63
2021/12/09 11:23:50;;;;;;;;;;;;;;;;;;5081394;28;19916;-62
2021/12/09 11:26:15;;;;;;;;;;;;;;;;;;5092685;28;19920;-63
2021/12/09 11:28:40;;;;;;;;;;;;;;;;;;5084271;28;19920;-62
2021/12/09 11:31:08;;;;;;;;;;;;;;;;;;5081302;28;19988;-62
2021/12/09 11:33:37;;;;;;;;;;;;;;;;;;5084077;28;20296;-60
2021/12/09 11:36:02;;;;;;;;;;;;;;;;;;5081601;28;20531;-61
2021/12/09 11:38:52;;;;;;;;;;;;;;;;;;5081159;28;19916;-61
2021/12/09 11:41:17;;;;;;;;;;;;;;;;;;5081933;28;19916;-61
2021/12/09 11:43:42;;;;;;;;;;;;;;;;;;5084542;28;19920;-61
2021/12/09 11:46:08;;;;;;;;;;;;;;;;;;5085033;28;20018;-62
2021/12/09 11:48:33;;;;;;;;;;;;;;;;;;5079885;28;19919;-61
2021/12/09 11:50:58;;;;;;;;;;;;;;;;;;5080288;28;20578;-61
2021/12/09 11:53:23;;;;;;;;;;;;;;;;;;5081679;28;19920;-62
2021/12/09 11:56:00;;;;;;;;;;;;;;;;;;5082737;28;19922;-61
2021/12/09 11:58:29;;;;;;;;;;;;;;;;;;5081328;28;19931;-61
2021/12/09 12:11:51;;;;;;;;;;;;;;;;;;5083780;28;20582;-61
2021/12/09 12:14:18;;;;;;;;;;;;;;;;;;5082542;28;19916;-61
2021/12/09 12:17:23;;;;;;;;;;;;;;;;;;5083087;28;19928;-61
2021/12/09 12:19:40;;;;;;;;;;;;;;;;;;5078989;28;20007;-61
2021/12/09 12:22:23;;;;;;;;;;;;;;;;;;5087612;28;19948;-60
2021/12/09 12:27:19;;;;;;;;;;;;;;;;;;5086183;28;19920;-60
2021/12/09 12:30:12;;;;;;;;;;;;;;;;;;5080878;28;19912;-62
2021/12/09 12:40:28;;;;;;;;;;;;;;;;;;5080595;28;19959;-61
2021/12/09 12:43:03;;;;;;;;;;;;;;;;;;5084217;28;20328;-62
2021/12/09 12:45:39;;;;;;;;;;;;;;;;;;5083914;28;20268;-60
2021/12/09 12:50:33;;;;;;;;;;;;;;;;;;5085972;28;20058;-61
2021/12/09 12:52:59;;;;;;;;;;;;;;;;;;5081655;28;19919;-62
2021/12/09 12:55:26;;;;;;;;;;;;;;;;;;5082834;28;20390;-62
2021/12/09 12:57:53;;;;;;;;;;;;;;;;;;5080330;28;19912;-62
2021/12/09 13:00:19;;;;;;;;;;;;;;;;;;5081507;28;20694;-61
2021/12/09 13:13:13;;;;;;;;;;;;;;;;;;5081065;28;20010;-61
2021/12/09 13:15:50;;;;;;;;;;;;;;;;;;5079620;28;19934;-62
2021/12/09 13:18:19;;;;;;;;;;;;;;;;;;5080611;28;19928;-62
2021/12/09 13:20:44;;;;;;;;;;;;;;;;;;5077714;28;19954;-62
2021/12/09 13:23:10;;;;;;;;;;;;;;;;;;5079400;28;20100;-63
2021/12/09 13:25:35;;;;;;;;;;;;;;;;;;5082487;28;19976;-62
2021/12/09 13:28:04;;;;;;;;;;;;;;;;;;5078975;28;19916;-62
2021/12/09 13:33:18;;;;;;;;;;;;;;;;;;5074624;28;19928;-61
2021/12/09 13:46:12;;;;;;;;;;;;;;;;;;5081279;28;20017;-62
2021/12/09 13:48:46;;;;;;;;;;;;;;;;;;5081116;28;19916;-62
2021/12/09 13:51:21;;;;;;;;;;;;;;;;;;5079105;28;19923;-62
2021/12/09 13:56:44;;;;;;;;;;;;;;;;;;5059012;28;19920;-60
2021/12/09 13:59:09;;;;;;;;;;;;;;;;;;5082092;28;19927;-62
2021/12/09 14:01:34;;;;;;;;;;;;;;;;;;5085950;28;19927;-61
2021/12/09 14:03:59;;;;;;;;;;;;;;;;;;5082335;28;19916;-61
2021/12/09 14:06:25;;;;;;;;;;;;;;;;;;5083675;28;20413;-62
2021/12/09 14:08:52;;;;;;;;;;;;;;;;;;5085800;28;19916;-61
2021/12/09 14:11:23;;;;;;;;;;;;;;;;;;5079104;28;20476;-62
2021/12/09 14:13:49;;;;;;;;;;;;;;;;;;5085085;28;19920;-61
2021/12/09 14:16:26;;;;;;;;;;;;;;;;;;5081816;28;19920;-62
2021/12/09 14:21:16;;;;;;;;;;;;;;;;;;5092611;28;20283;-61
2021/12/09 14:23:41;;;;;;;;;;;;;;;;;;5087535;28;19917;-62
2021/12/09 14:26:06;;;;;;;;;;;;;;;;;;5084045;28;20580;-61
2021/12/09 14:28:31;;;;;;;;;;;;;;;;;;5085912;28;19920;-60
2021/12/09 14:30:56;;;;;;;;;;;;;;;;;;5082773;28;19919;-60
2021/12/09 14:33:22;;;;;;;;;;;;;;;;;;5084365;28;19928;-61
2021/12/09 14:35:48;;;;;;;;;;;;;;;;;;5082744;28;19955;-60
2021/12/09 14:38:13;;;;;;;;;;;;;;;;;;5066720;28;19920;-61
2021/12/09 14:40:41;;;;;;;;;;;;;;;;;;5067913;28;21335;-60
2021/12/09 14:43:09;;;;;;;;;;;;;;;;;;5078489;28;20319;-60
2021/12/09 14:45:34;;;;;;;;;;;;;;;;;;5084618;28;19917;-60
2021/12/09 14:47:59;;;;;;;;;;;;;;;;;;5086245;28;20300;-61
2021/12/09 14:50:24;;;;;;;;;;;;;;;;;;5077964;28;20066;-60
2021/12/09 14:52:49;;;;;;;;;;;;;;;;;;5080307;28;19973;-60
2021/12/09 14:55:14;;;;;;;;;;;;;;;;;;5082733;28;19938;-60
2021/12/09 14:57:39;;;;;;;;;;;;;;;;;;5064253;28;19920;-60
2021/12/09 15:00:05;;;;;;;;;;;;;;;;;;5085315;28;19931;-62
2021/12/09 15:02:37;;;;;;;;;;;;;;;;;;5081508;28;20397;-62
2021/12/09 15:05:02;;;;;;;;;;;;;;;;;;5081867;28;20275;-65
2021/12/09 15:07:37;;;;;;;;;;;;;;;;;;5081861;28;19916;-63
2021/12/09 15:10:02;;;;;;;;;;;;;;;;;;5082004;28;19920;-63
2021/12/09 15:12:27;;;;;;;;;;;;;;;;;;5082694;28;20057;-63
2021/12/09 15:14:52;;;;;;;;;;;;;;;;;;5064847;28;19912;-62
2021/12/09 15:17:19;;;;;;;;;;;;;;;;;;5079235;28;19928;-62
2021/12/09 15:19:45;;;;;;;;;;;;;;;;;;5035496;28;20148;-63
2021/12/09 15:22:11;;;;;;;;;;;;;;;;;;5077324;28;19920;-63
2021/12/09 15:24:36;;;;;;;;;;;;;;;;;;5081505;28;19919;-63
2021/12/09 15:27:01;;;;;;;;;;;;;;;;;;5082533;28;19913;-63
2021/12/09 15:29:27;;;;;;;;;;;;;;;;;;5081322;28;20016;-63
2021/12/09 15:31:52;;;;;;;;;;;;;;;;;;5083408;28;19931;-63
2021/12/09 15:34:17;;;;;;;;;;;;;;;;;;5083380;28;20022;-63
2021/12/09 15:36:42;;;;;;;;;;;;;;;;;;5079134;28;20000;-63
2021/12/09 15:39:08;;;;;;;;;;;;;;;;;;5080344;28;20302;-63
2021/12/09 15:41:33;;;;;;;;;;;;;;;;;;5080656;28;19911;-64
2021/12/09 15:43:58;;;;;;;;;;;;;;;;;;5082667;28;19927;-64
2021/12/09 15:46:23;;;;;;;;;;;;;;;;;;5080534;28;19916;-63
2021/12/09 15:48:48;;;;;;;;;;;;;;;;;;5081003;28;19920;-64
2021/12/09 15:51:13;;;;;;;;;;;;;;;;;;5081101;28;19924;-62
2021/12/09 15:53:38;;;;;;;;;;;;;;;;;;5082030;28;19963;-63
2021/12/09 15:56:03;;;;;;;;;;;;;;;;;;5081491;28;19920;-64
2021/12/09 15:58:28;;;;;;;;;;;;;;;;;;5080564;28;19916;-63
2021/12/09 16:00:55;;;;;;;;;;;;;;;;;;5078479;28;19916;-62
2021/12/09 16:03:20;;;;;;;;;;;;;;;;;;5078589;28;19926;-63
2021/12/09 16:05:46;;;;;;;;;;;;;;;;;;5073137;28;20529;-64
2021/12/09 16:08:11;;;;;;;;;;;;;;;;;;5077122;28;19934;-64
2021/12/09 16:10:36;;;;;;;;;;;;;;;;;;5084041;28;19920;-63
2021/12/09 16:13:01;;;;;;;;;;;;;;;;;;5082749;28;19966;-63
2021/12/09 16:15:27;;;;;;;;;;;;;;;;;;5083124;28;19958;-63
2021/12/09 16:17:53;;;;;;;;;;;;;;;;;;5081849;28;19985;-63
2021/12/09 16:20:22;;;;;;;;;;;;;;;;;;5082368;28;19916;-63
2021/12/09 16:22:47;;;;;;;;;;;;;;;;;;5083363;28;19912;-64
2021/12/09 16:25:12;;;;;;;;;;;;;;;;;;5083276;28;19912;-64
2021/12/09 16:27:37;;;;;;;;;;;;;;;;;;5082145;28;19958;-64
2021/12/09 16:30:02;;;;;;;;;;;;;;;;;;5086569;28;20429;-64
2021/12/09 16:32:27;;;;;;;;;;;;;;;;;;5084412;28;19969;-64
2021/12/09 16:34:52;;;;;;;;;;;;;;;;;;5084711;28;20625;-65
2021/12/09 16:37:17;;;;;;;;;;;;;;;;;;5081338;28;19922;-63
2021/12/09 16:39:42;;;;;;;;;;;;;;;;;;5081203;28;19993;-63
2021/12/09 16:42:07;;;;;;;;;;;;;;;;;;5082978;28;19912;-63
2021/12/09 16:44:33;;;;;;;;;;;;;;;;;;5085146;28;19958;-63
2021/12/09 16:46:58;;;;;;;;;;;;;;;;;;5081193;28;20419;-63
2021/12/09 16:49:23;;;;;;;;;;;;;;;;;;5081378;28;19912;-64
2021/12/09 16:51:48;;;;;;;;;;;;;;;;;;5082786;28;19919;-64
2021/12/09 16:54:15;;;;;;;;;;;;;;;;;;5075663;28;20276;-62
2021/12/09 16:56:56;;;;;;;;;;;;;;;;;;5084979;28;19916;-64
2021/12/09 16:59:21;;;;;;;;;;;;;;;;;;5082223;28;19955;-64
2021/12/09 17:01:48;;;;;;;;;;;;;;;;;;5080785;28;19966;-64
2021/12/09 17:04:13;;;;;;;;;;;;;;;;;;5083440;28;19931;-63
2021/12/09 17:06:38;;;;;;;;;;;;;;;;;;5087620;28;19920;-62
2021/12/09 17:09:04;;;;;;;;;;;;;;;;;;5081181;28;19913;-62
2021/12/09 17:11:32;;;;;;;;;;;;;;;;;;5080976;28;19999;-63
2021/12/09 17:13:57;;;;;;;;;;;;;;;;;;5074492;28;19912;-62
2021/12/09 17:16:22;;;;;;;;;;;;;;;;;;5082088;28;19919;-63
2021/12/09 17:18:47;;;;;;;;;;;;;;;;;;5077317;28;19967;-63
2021/12/09 17:21:13;;;;;;;;;;;;;;;;;;5086710;28;19912;-63
2021/12/09 17:23:38;;;;;;;;;;;;;;;;;;5080297;28;19924;-62
2021/12/09 17:26:04;;;;;;;;;;;;;;;;;;5067745;28;20007;-62
2021/12/09 17:28:29;;;;;;;;;;;;;;;;;;5072663;28;20024;-62
2021/12/09 17:30:54;;;;;;;;;;;;;;;;;;5075428;28;19947;-64
2021/12/09 17:33:20;;;;;;;;;;;;;;;;;;5069004;28;19920;-63